sensor_id;sensor_type;location;lat;lon;timestamp;temperature;humidity
9984;DHT22;16737;50.932;6.780;2022-07-04T00:01:27;19.70;69.30
9984;DHT22;16737;50.932;6.780;2022-07-04T00:03:54;19.70;69.40
9984;DHT22;16737;50.932;6.780;2022-07-04T00:06:21;19.60;69.50
9984;DHT22;16737;50.932;6.780;2022-07-04T00:08:49;19.60;69.60
9984;DHT22;16737;50.932;6.780;2022-07-04T00:11:16;19.60;70.00
9984;DHT22;16737;50.932;6.780;2022-07-04T00:13:43;19.50;69.70
9984;DHT22;16737;50.932;6.780;2022-07-04T00:16:10;19.50;70.00
9984;DHT22;16737;50.932;6.780;2022-07-04T00:18:37;19.40;70.00
9984;DHT22;16737;50.932;6.780;2022-07-04T00:21:05;19.40;70.10
9984;DHT22;16737;50.932;6.780;2022-07-04T00:23:32;19.40;70.20
9984;DHT22;16737;50.932;6.780;2022-07-04T00:26:00;19.30;70.30
9984;DHT22;16737;50.932;6.780;2022-07-04T00:28:27;19.30;70.70
9984;DHT22;16737;50.932;6.780;2022-07-04T00:30:54;19.30;70.60
9984;DHT22;16737;50.932;6.780;2022-07-04T00:33:21;19.20;70.50
9984;DHT22;16737;50.932;6.780;2022-07-04T00:35:48;19.20;70.60
9984;DHT22;16737;50.932;6.780;2022-07-04T00:38:15;19.20;70.60
9984;DHT22;16737;50.932;6.780;2022-07-04T00:40:42;19.10;70.60
9984;DHT22;16737;50.932;6.780;2022-07-04T00:43:11;19.10;70.70
9984;DHT22;16737;50.932;6.780;2022-07-04T00:45:38;19.10;71.10
9984;DHT22;16737;50.932;6.780;2022-07-04T00:48:05;19.10;70.90
9984;DHT22;16737;50.932;6.780;2022-07-04T00:50:32;19.00;71.10
9984;DHT22;16737;50.932;6.780;2022-07-04T00:53:00;19.00;71.20
9984;DHT22;16737;50.932;6.780;2022-07-04T00:55:27;19.00;71.60
9984;DHT22;16737;50.932;6.780;2022-07-04T00:57:55;18.90;71.50
9984;DHT22;16737;50.932;6.780;2022-07-04T01:00:23;18.90;71.50
9984;DHT22;16737;50.932;6.780;2022-07-04T01:02:51;18.90;71.80
9984;DHT22;16737;50.932;6.780;2022-07-04T01:05:18;18.90;71.70
9984;DHT22;16737;50.932;6.780;2022-07-04T01:07:45;18.80;71.60
9984;DHT22;16737;50.932;6.780;2022-07-04T01:10:13;18.80;71.70
9984;DHT22;16737;50.932;6.780;2022-07-04T01:12:40;18.80;72.00
9984;DHT22;16737;50.932;6.780;2022-07-04T01:15:08;18.80;72.30
9984;DHT22;16737;50.932;6.780;2022-07-04T01:17:36;18.80;72.50
9984;DHT22;16737;50.932;6.780;2022-07-04T01:20:04;18.70;72.50
9984;DHT22;16737;50.932;6.780;2022-07-04T01:22:33;18.70;72.40
9984;DHT22;16737;50.932;6.780;2022-07-04T01:25:00;18.60;72.50
9984;DHT22;16737;50.932;6.780;2022-07-04T01:27:28;18.60;72.40
9984;DHT22;16737;50.932;6.780;2022-07-04T01:29:55;18.60;72.60
9984;DHT22;16737;50.932;6.780;2022-07-04T01:32:22;18.60;72.70
9984;DHT22;16737;50.932;6.780;2022-07-04T01:34:49;18.60;72.90
9984;DHT22;16737;50.932;6.780;2022-07-04T01:37:16;18.50;72.90
9984;DHT22;16737;50.932;6.780;2022-07-04T01:39:45;18.50;72.90
9984;DHT22;16737;50.932;6.780;2022-07-04T01:42:12;18.50;73.20
9984;DHT22;16737;50.932;6.780;2022-07-04T01:44:39;18.40;73.00
9984;DHT22;16737;50.932;6.780;2022-07-04T01:47:06;18.40;73.00
9984;DHT22;16737;50.932;6.780;2022-07-04T01:49:33;18.50;73.20
9984;DHT22;16737;50.932;6.780;2022-07-04T01:52:00;18.40;73.90
9984;DHT22;16737;50.932;6.780;2022-07-04T01:54:27;18.40;73.20
9984;DHT22;16737;50.932;6.780;2022-07-04T01:56:55;18.30;73.20
9984;DHT22;16737;50.932;6.780;2022-07-04T01:59:22;18.30;73.60
9984;DHT22;16737;50.932;6.780;2022-07-04T02:02:09;18.30;73.40
9984;DHT22;16737;50.932;6.780;2022-07-04T02:04:35;18.30;73.50
9984;DHT22;16737;50.932;6.780;2022-07-04T02:07:04;18.20;73.60
9984;DHT22;16737;50.932;6.780;2022-07-04T02:09:31;18.20;73.90
9984;DHT22;16737;50.932;6.780;2022-07-04T02:11:59;18.20;73.90
9984;DHT22;16737;50.932;6.780;2022-07-04T02:14:44;18.20;74.30
9984;DHT22;16737;50.932;6.780;2022-07-04T02:17:11;18.20;74.10
9984;DHT22;16737;50.932;6.780;2022-07-04T02:19:38;18.20;74.20
9984;DHT22;16737;50.932;6.780;2022-07-04T02:22:05;18.20;75.10
9984;DHT22;16737;50.932;6.780;2022-07-04T02:24:32;18.10;74.30
9984;DHT22;16737;50.932;6.780;2022-07-04T02:27:01;18.10;74.40
9984;DHT22;16737;50.932;6.780;2022-07-04T02:29:28;18.10;74.80
9984;DHT22;16737;50.932;6.780;2022-07-04T02:31:55;18.10;74.60
9984;DHT22;16737;50.932;6.780;2022-07-04T02:34:22;18.00;74.60
9984;DHT22;16737;50.932;6.780;2022-07-04T02:36:49;18.10;74.80
9984;DHT22;16737;50.932;6.780;2022-07-04T02:39:17;18.00;74.90
9984;DHT22;16737;50.932;6.780;2022-07-04T02:41:44;18.00;75.00
9984;DHT22;16737;50.932;6.780;2022-07-04T02:44:12;18.00;75.10
9984;DHT22;16737;50.932;6.780;2022-07-04T02:46:39;18.00;75.40
9984;DHT22;16737;50.932;6.780;2022-07-04T02:49:06;18.00;75.30
9984;DHT22;16737;50.932;6.780;2022-07-04T02:51:34;18.00;75.40
9984;DHT22;16737;50.932;6.780;2022-07-04T02:54:01;18.00;75.50
9984;DHT22;16737;50.932;6.780;2022-07-04T02:56:28;18.00;75.60
9984;DHT22;16737;50.932;6.780;2022-07-04T02:58:55;18.00;75.80
9984;DHT22;16737;50.932;6.780;2022-07-04T03:01:23;17.90;75.80
9984;DHT22;16737;50.932;6.780;2022-07-04T03:03:50;17.90;76.10
9984;DHT22;16737;50.932;6.780;2022-07-04T03:06:18;17.90;75.90
9984;DHT22;16737;50.932;6.780;2022-07-04T03:08:45;17.90;76.10
9984;DHT22;16737;50.932;6.780;2022-07-04T03:11:12;17.90;76.20
9984;DHT22;16737;50.932;6.780;2022-07-04T03:13:40;17.90;76.20
9984;DHT22;16737;50.932;6.780;2022-07-04T03:16:07;17.80;76.60
9984;DHT22;16737;50.932;6.780;2022-07-04T03:18:37;17.80;76.40
9984;DHT22;16737;50.932;6.780;2022-07-04T03:21:04;17.80;76.70
9984;DHT22;16737;50.932;6.780;2022-07-04T03:23:32;17.80;77.30
9984;DHT22;16737;50.932;6.780;2022-07-04T03:26:01;17.80;76.70
9984;DHT22;16737;50.932;6.780;2022-07-04T03:28:28;17.80;76.70
9984;DHT22;16737;50.932;6.780;2022-07-04T03:30:55;17.70;76.70
9984;DHT22;16737;50.932;6.780;2022-07-04T03:33:22;17.70;77.60
9984;DHT22;16737;50.932;6.780;2022-07-04T03:35:50;17.70;77.00
9984;DHT22;16737;50.932;6.780;2022-07-04T03:38:17;17.70;77.30
9984;DHT22;16737;50.932;6.780;2022-07-04T03:40:44;17.70;77.10
9984;DHT22;16737;50.932;6.780;2022-07-04T03:43:11;17.70;77.10
9984;DHT22;16737;50.932;6.780;2022-07-04T03:45:38;17.70;77.30
9984;DHT22;16737;50.932;6.780;2022-07-04T03:48:05;17.70;77.40
9984;DHT22;16737;50.932;6.780;2022-07-04T03:50:32;17.70;77.50
9984;DHT22;16737;50.932;6.780;2022-07-04T03:53:01;17.60;77.60
9984;DHT22;16737;50.932;6.780;2022-07-04T03:55:28;17.60;78.10
9984;DHT22;16737;50.932;6.780;2022-07-04T03:57:55;17.60;77.90
9984;DHT22;16737;50.932;6.780;2022-07-04T04:00:22;17.60;78.10
9984;DHT22;16737;50.932;6.780;2022-07-04T04:02:49;17.60;78.40
9984;DHT22;16737;50.932;6.780;2022-07-04T04:05:16;17.60;78.50
9984;DHT22;16737;50.932;6.780;2022-07-04T04:07:53;17.50;78.40
9984;DHT22;16737;50.932;6.780;2022-07-04T04:10:22;17.50;78.50
9984;DHT22;16737;50.932;6.780;2022-07-04T04:12:50;17.50;79.10
9984;DHT22;16737;50.932;6.780;2022-07-04T04:15:18;17.50;78.90
9984;DHT22;16737;50.932;6.780;2022-07-04T04:17:45;17.40;79.00
9984;DHT22;16737;50.932;6.780;2022-07-04T04:20:12;17.40;79.20
9984;DHT22;16737;50.932;6.780;2022-07-04T04:22:39;17.40;79.30
9984;DHT22;16737;50.932;6.780;2022-07-04T04:25:07;17.40;79.40
9984;DHT22;16737;50.932;6.780;2022-07-04T04:27:36;17.40;79.60
9984;DHT22;16737;50.932;6.780;2022-07-04T04:30:04;17.40;79.90
9984;DHT22;16737;50.932;6.780;2022-07-04T04:32:32;17.40;80.00
9984;DHT22;16737;50.932;6.780;2022-07-04T04:34:59;17.40;80.20
9984;DHT22;16737;50.932;6.780;2022-07-04T04:37:26;17.40;80.30
9984;DHT22;16737;50.932;6.780;2022-07-04T04:39:53;17.40;80.40
9984;DHT22;16737;50.932;6.780;2022-07-04T04:42:20;17.40;80.50
9984;DHT22;16737;50.932;6.780;2022-07-04T04:44:48;17.40;80.70
9984;DHT22;16737;50.932;6.780;2022-07-04T04:47:16;17.40;81.00
9984;DHT22;16737;50.932;6.780;2022-07-04T04:49:43;17.40;80.90
9984;DHT22;16737;50.932;6.780;2022-07-04T04:52:10;17.40;81.00
9984;DHT22;16737;50.932;6.780;2022-07-04T04:54:37;17.50;81.30
9984;DHT22;16737;50.932;6.780;2022-07-04T04:57:05;17.50;81.40
9984;DHT22;16737;50.932;6.780;2022-07-04T04:59:33;17.50;81.60
9984;DHT22;16737;50.932;6.780;2022-07-04T05:02:03;17.60;81.80
9984;DHT22;16737;50.932;6.780;2022-07-04T05:04:30;17.60;82.80
9984;DHT22;16737;50.932;6.780;2022-07-04T05:06:57;17.60;81.80
9984;DHT22;16737;50.932;6.780;2022-07-04T05:09:24;17.70;82.00
9984;DHT22;16737;50.932;6.780;2022-07-04T05:11:51;17.70;82.10
9984;DHT22;16737;50.932;6.780;2022-07-04T05:14:18;17.70;82.20
9984;DHT22;16737;50.932;6.780;2022-07-04T05:16:46;17.80;82.30
9984;DHT22;16737;50.932;6.780;2022-07-04T05:19:14;17.80;82.20
9984;DHT22;16737;50.932;6.780;2022-07-04T05:21:41;17.90;83.30
9984;DHT22;16737;50.932;6.780;2022-07-04T05:24:08;17.90;82.30
9984;DHT22;16737;50.932;6.780;2022-07-04T05:26:36;17.90;82.40
9984;DHT22;16737;50.932;6.780;2022-07-04T05:29:04;18.00;82.50
9984;DHT22;16737;50.932;6.780;2022-07-04T05:31:31;18.00;82.50
9984;DHT22;16737;50.932;6.780;2022-07-04T05:33:58;18.00;82.50
9984;DHT22;16737;50.932;6.780;2022-07-04T05:36:27;18.10;82.60
9984;DHT22;16737;50.932;6.780;2022-07-04T05:38:54;18.10;82.90
9984;DHT22;16737;50.932;6.780;2022-07-04T05:41:21;18.20;82.80
9984;DHT22;16737;50.932;6.780;2022-07-04T05:43:48;18.20;83.50
9984;DHT22;16737;50.932;6.780;2022-07-04T05:46:15;18.30;83.00
9984;DHT22;16737;50.932;6.780;2022-07-04T05:48:42;18.30;83.00
9984;DHT22;16737;50.932;6.780;2022-07-04T05:51:09;18.30;83.00
9984;DHT22;16737;50.932;6.780;2022-07-04T05:53:38;18.40;83.10
9984;DHT22;16737;50.932;6.780;2022-07-04T05:56:05;18.40;83.40
9984;DHT22;16737;50.932;6.780;2022-07-04T05:58:32;18.50;83.40
9984;DHT22;16737;50.932;6.780;2022-07-04T06:00:59;18.60;84.20
9984;DHT22;16737;50.932;6.780;2022-07-04T06:03:26;18.60;83.40
9984;DHT22;16737;50.932;6.780;2022-07-04T06:05:53;18.60;83.60
9984;DHT22;16737;50.932;6.780;2022-07-04T06:08:21;18.70;83.60
9984;DHT22;16737;50.932;6.780;2022-07-04T06:10:50;18.70;83.30
9984;DHT22;16737;50.932;6.780;2022-07-04T06:13:17;18.80;83.40
9984;DHT22;16737;50.932;6.780;2022-07-04T06:15:44;18.80;83.00
9984;DHT22;16737;50.932;6.780;2022-07-04T06:18:11;18.90;83.10
9984;DHT22;16737;50.932;6.780;2022-07-04T06:20:38;18.90;83.00
9984;DHT22;16737;50.932;6.780;2022-07-04T06:23:06;19.00;83.00
9984;DHT22;16737;50.932;6.780;2022-07-04T06:25:34;19.10;83.00
9984;DHT22;16737;50.932;6.780;2022-07-04T06:28:03;19.10;83.30
9984;DHT22;16737;50.932;6.780;2022-07-04T06:30:30;19.10;83.40
9984;DHT22;16737;50.932;6.780;2022-07-04T06:32:58;19.20;83.40
9984;DHT22;16737;50.932;6.780;2022-07-04T06:35:28;19.20;83.30
9984;DHT22;16737;50.932;6.780;2022-07-04T06:38:12;19.30;83.30
9984;DHT22;16737;50.932;6.780;2022-07-04T06:40:40;19.30;83.30
9984;DHT22;16737;50.932;6.780;2022-07-04T06:43:09;19.40;83.60
9984;DHT22;16737;50.932;6.780;2022-07-04T06:45:37;19.40;83.40
9984;DHT22;16737;50.932;6.780;2022-07-04T06:48:05;19.50;83.40
9984;DHT22;16737;50.932;6.780;2022-07-04T06:50:33;19.50;83.80
9984;DHT22;16737;50.932;6.780;2022-07-04T06:53:01;19.60;83.50
9984;DHT22;16737;50.932;6.780;2022-07-04T06:55:35;19.60;83.00
9984;DHT22;16737;50.932;6.780;2022-07-04T06:58:03;19.70;83.00
9984;DHT22;16737;50.932;6.780;2022-07-04T07:00:34;19.80;82.60
9984;DHT22;16737;50.932;6.780;2022-07-04T07:03:02;19.80;82.20
9984;DHT22;16737;50.932;6.780;2022-07-04T07:05:29;19.80;81.90
9984;DHT22;16737;50.932;6.780;2022-07-04T07:07:57;19.90;81.50
9984;DHT22;16737;50.932;6.780;2022-07-04T07:10:24;19.90;80.90
9984;DHT22;16737;50.932;6.780;2022-07-04T07:12:51;20.00;80.80
9984;DHT22;16737;50.932;6.780;2022-07-04T07:15:18;20.00;80.90
9984;DHT22;16737;50.932;6.780;2022-07-04T07:17:46;20.10;80.40
9984;DHT22;16737;50.932;6.780;2022-07-04T07:20:14;20.10;79.40
9984;DHT22;16737;50.932;6.780;2022-07-04T07:22:41;20.20;80.80
9984;DHT22;16737;50.932;6.780;2022-07-04T07:25:09;20.20;79.70
9984;DHT22;16737;50.932;6.780;2022-07-04T07:27:36;20.30;79.70
9984;DHT22;16737;50.932;6.780;2022-07-04T07:30:05;20.40;79.40
9984;DHT22;16737;50.932;6.780;2022-07-04T07:32:32;20.40;78.70
9984;DHT22;16737;50.932;6.780;2022-07-04T07:35:01;20.50;78.50
9984;DHT22;16737;50.932;6.780;2022-07-04T07:37:28;20.50;78.50
9984;DHT22;16737;50.932;6.780;2022-07-04T07:39:56;20.60;78.60
9984;DHT22;16737;50.932;6.780;2022-07-04T07:42:23;20.60;78.60
9984;DHT22;16737;50.932;6.780;2022-07-04T07:44:51;20.70;78.80
9984;DHT22;16737;50.932;6.780;2022-07-04T07:47:18;20.70;79.20
9984;DHT22;16737;50.932;6.780;2022-07-04T07:49:45;20.80;79.60
9984;DHT22;16737;50.932;6.780;2022-07-04T07:52:15;20.90;79.70
9984;DHT22;16737;50.932;6.780;2022-07-04T07:54:43;21.00;79.20
9984;DHT22;16737;50.932;6.780;2022-07-04T07:57:10;21.00;79.10
9984;DHT22;16737;50.932;6.780;2022-07-04T07:59:37;21.10;79.80
9984;DHT22;16737;50.932;6.780;2022-07-04T08:02:04;21.10;80.20
9984;DHT22;16737;50.932;6.780;2022-07-04T08:04:31;21.30;80.30
9984;DHT22;16737;50.932;6.780;2022-07-04T08:07:00;21.30;79.50
9984;DHT22;16737;50.932;6.780;2022-07-04T08:09:29;21.40;79.20
9984;DHT22;16737;50.932;6.780;2022-07-04T08:11:56;21.50;78.30
9984;DHT22;16737;50.932;6.780;2022-07-04T08:14:23;21.60;77.90
9984;DHT22;16737;50.932;6.780;2022-07-04T08:16:50;21.70;78.10
9984;DHT22;16737;50.932;6.780;2022-07-04T08:19:17;21.80;76.90
9984;DHT22;16737;50.932;6.780;2022-07-04T08:21:44;21.80;76.40
9984;DHT22;16737;50.932;6.780;2022-07-04T08:24:13;21.90;76.70
9984;DHT22;16737;50.932;6.780;2022-07-04T08:26:41;21.90;77.00
9984;DHT22;16737;50.932;6.780;2022-07-04T08:29:18;22.00;77.40
9984;DHT22;16737;50.932;6.780;2022-07-04T08:31:46;22.10;76.80
9984;DHT22;16737;50.932;6.780;2022-07-04T08:34:13;22.20;77.00
9984;DHT22;16737;50.932;6.780;2022-07-04T08:36:41;22.20;76.20
9984;DHT22;16737;50.932;6.780;2022-07-04T08:39:08;22.30;75.90
9984;DHT22;16737;50.932;6.780;2022-07-04T08:41:38;22.40;75.00
9984;DHT22;16737;50.932;6.780;2022-07-04T08:44:08;22.50;74.60
9984;DHT22;16737;50.932;6.780;2022-07-04T08:46:39;22.50;74.30
9984;DHT22;16737;50.932;6.780;2022-07-04T08:49:23;22.60;73.90
9984;DHT22;16737;50.932;6.780;2022-07-04T08:51:59;22.70;74.00
9984;DHT22;16737;50.932;6.780;2022-07-04T08:54:30;22.70;73.70
9984;DHT22;16737;50.932;6.780;2022-07-04T08:57:24;22.80;74.00
9984;DHT22;16737;50.932;6.780;2022-07-04T09:00:11;22.90;74.50
9984;DHT22;16737;50.932;6.780;2022-07-04T09:02:38;23.00;74.20
9984;DHT22;16737;50.932;6.780;2022-07-04T09:05:07;23.10;74.30
9984;DHT22;16737;50.932;6.780;2022-07-04T09:07:35;23.10;73.40
9984;DHT22;16737;50.932;6.780;2022-07-04T09:10:03;23.20;74.40
9984;DHT22;16737;50.932;6.780;2022-07-04T09:12:31;23.30;74.00
9984;DHT22;16737;50.932;6.780;2022-07-04T09:14:58;23.40;74.30
9984;DHT22;16737;50.932;6.780;2022-07-04T09:17:28;23.50;74.50
9984;DHT22;16737;50.932;6.780;2022-07-04T09:20:12;23.60;74.40
9984;DHT22;16737;50.932;6.780;2022-07-04T09:22:41;23.70;73.50
9984;DHT22;16737;50.932;6.780;2022-07-04T09:25:09;23.80;74.10
9984;DHT22;16737;50.932;6.780;2022-07-04T09:27:41;23.90;74.50
9984;DHT22;16737;50.932;6.780;2022-07-04T09:30:11;24.00;75.40
9984;DHT22;16737;50.932;6.780;2022-07-04T09:32:41;24.20;74.90
9984;DHT22;16737;50.932;6.780;2022-07-04T09:35:11;24.30;73.20
9984;DHT22;16737;50.932;6.780;2022-07-04T09:37:41;24.40;72.30
9984;DHT22;16737;50.932;6.780;2022-07-04T09:40:21;24.40;72.10
9984;DHT22;16737;50.932;6.780;2022-07-04T09:42:50;24.50;69.30
9984;DHT22;16737;50.932;6.780;2022-07-04T09:45:18;24.60;71.00
9984;DHT22;16737;50.932;6.780;2022-07-04T09:47:48;24.60;71.40
9984;DHT22;16737;50.932;6.780;2022-07-04T09:50:16;24.70;71.10
9984;DHT22;16737;50.932;6.780;2022-07-04T09:52:50;24.80;71.30
9984;DHT22;16737;50.932;6.780;2022-07-04T09:55:26;24.90;70.40
9984;DHT22;16737;50.932;6.780;2022-07-04T09:57:55;25.00;69.70
9984;DHT22;16737;50.932;6.780;2022-07-04T10:00:25;25.00;71.20
9984;DHT22;16737;50.932;6.780;2022-07-04T10:02:56;25.10;70.50
9984;DHT22;16737;50.932;6.780;2022-07-04T10:05:41;25.20;69.10
9984;DHT22;16737;50.932;6.780;2022-07-04T10:08:08;25.30;69.70
9984;DHT22;16737;50.932;6.780;2022-07-04T10:10:37;25.30;69.30
9984;DHT22;16737;50.932;6.780;2022-07-04T10:13:06;25.40;70.90
9984;DHT22;16737;50.932;6.780;2022-07-04T10:15:37;25.50;70.60
9984;DHT22;16737;50.932;6.780;2022-07-04T10:18:08;25.60;70.30
9984;DHT22;16737;50.932;6.780;2022-07-04T10:20:36;25.70;70.30
9984;DHT22;16737;50.932;6.780;2022-07-04T10:23:03;25.80;71.50
9984;DHT22;16737;50.932;6.780;2022-07-04T10:25:30;25.90;70.90
9984;DHT22;16737;50.932;6.780;2022-07-04T10:27:57;26.00;70.40
9984;DHT22;16737;50.932;6.780;2022-07-04T10:30:27;26.10;69.70
9984;DHT22;16737;50.932;6.780;2022-07-04T10:32:59;26.20;68.30
9984;DHT22;16737;50.932;6.780;2022-07-04T10:35:49;26.20;66.50
9984;DHT22;16737;50.932;6.780;2022-07-04T10:38:20;26.30;66.10
9984;DHT22;16737;50.932;6.780;2022-07-04T10:40:49;26.30;67.20
9984;DHT22;16737;50.932;6.780;2022-07-04T10:43:37;26.30;66.60
9984;DHT22;16737;50.932;6.780;2022-07-04T10:46:43;26.40;66.50
9984;DHT22;16737;50.932;6.780;2022-07-04T10:49:24;26.40;66.90
9984;DHT22;16737;50.932;6.780;2022-07-04T10:51:56;26.50;66.40
9984;DHT22;16737;50.932;6.780;2022-07-04T10:54:36;26.60;66.70
9984;DHT22;16737;50.932;6.780;2022-07-04T10:57:15;26.60;66.20
9984;DHT22;16737;50.932;6.780;2022-07-04T11:00:02;26.70;65.60
9984;DHT22;16737;50.932;6.780;2022-07-04T11:02:32;26.80;64.40
9984;DHT22;16737;50.932;6.780;2022-07-04T11:05:02;26.80;65.70
9984;DHT22;16737;50.932;6.780;2022-07-04T11:07:58;26.80;64.90
9984;DHT22;16737;50.932;6.780;2022-07-04T11:10:30;26.80;63.40
9984;DHT22;16737;50.932;6.780;2022-07-04T11:13:14;26.90;63.90
9984;DHT22;16737;50.932;6.780;2022-07-04T11:16:07;26.90;63.60
9984;DHT22;16737;50.932;6.780;2022-07-04T11:18:41;26.90;63.20
9984;DHT22;16737;50.932;6.780;2022-07-04T11:21:16;27.00;63.30
9984;DHT22;16737;50.932;6.780;2022-07-04T11:23:52;27.10;63.70
9984;DHT22;16737;50.932;6.780;2022-07-04T11:26:22;27.20;62.90
9984;DHT22;16737;50.932;6.780;2022-07-04T11:28:49;27.20;63.20
9984;DHT22;16737;50.932;6.780;2022-07-04T11:31:17;27.20;62.90
9984;DHT22;16737;50.932;6.780;2022-07-04T11:33:45;27.20;62.80
9984;DHT22;16737;50.932;6.780;2022-07-04T11:36:14;27.30;62.50
9984;DHT22;16737;50.932;6.780;2022-07-04T11:38:45;27.30;61.50
9984;DHT22;16737;50.932;6.780;2022-07-04T11:41:15;27.40;62.00
9984;DHT22;16737;50.932;6.780;2022-07-04T11:44:10;27.40;60.90
9984;DHT22;16737;50.932;6.780;2022-07-04T11:47:11;27.50;60.90
9984;DHT22;16737;50.932;6.780;2022-07-04T11:49:46;27.50;59.50
9984;DHT22;16737;50.932;6.780;2022-07-04T11:52:16;27.50;60.20
9984;DHT22;16737;50.932;6.780;2022-07-04T11:54:46;27.50;60.50
9984;DHT22;16737;50.932;6.780;2022-07-04T11:57:18;27.50;60.50
9984;DHT22;16737;50.932;6.780;2022-07-04T11:59:53;27.60;59.70
9984;DHT22;16737;50.932;6.780;2022-07-04T12:02:21;27.70;59.20
9984;DHT22;16737;50.932;6.780;2022-07-04T12:04:49;27.70;59.60
9984;DHT22;16737;50.932;6.780;2022-07-04T12:07:17;27.80;59.90
9984;DHT22;16737;50.932;6.780;2022-07-04T12:09:46;27.90;59.90
9984;DHT22;16737;50.932;6.780;2022-07-04T12:12:16;28.00;59.40
9984;DHT22;16737;50.932;6.780;2022-07-04T12:15:00;28.00;59.10
9984;DHT22;16737;50.932;6.780;2022-07-04T12:17:32;28.10;58.90
9984;DHT22;16737;50.932;6.780;2022-07-04T12:20:03;28.20;59.10
9984;DHT22;16737;50.932;6.780;2022-07-04T12:22:39;28.30;58.60
9984;DHT22;16737;50.932;6.780;2022-07-04T12:25:21;28.30;58.00
9984;DHT22;16737;50.932;6.780;2022-07-04T12:27:59;28.40;57.60
9984;DHT22;16737;50.932;6.780;2022-07-04T12:30:28;28.40;56.20
9984;DHT22;16737;50.932;6.780;2022-07-04T12:32:58;28.40;56.90
9984;DHT22;16737;50.932;6.780;2022-07-04T12:35:43;28.40;56.80
9984;DHT22;16737;50.932;6.780;2022-07-04T12:38:14;28.40;55.80
9984;DHT22;16737;50.932;6.780;2022-07-04T12:40:54;28.30;56.10
9984;DHT22;16737;50.932;6.780;2022-07-04T12:43:25;28.30;55.40
9984;DHT22;16737;50.932;6.780;2022-07-04T12:46:11;28.20;55.80
9984;DHT22;16737;50.932;6.780;2022-07-04T12:48:40;28.10;56.20
9984;DHT22;16737;50.932;6.780;2022-07-04T12:51:10;28.10;56.20
9984;DHT22;16737;50.932;6.780;2022-07-04T12:53:39;28.10;55.80
9984;DHT22;16737;50.932;6.780;2022-07-04T12:56:08;28.00;56.10
9984;DHT22;16737;50.932;6.780;2022-07-04T12:58:37;28.00;55.90
9984;DHT22;16737;50.932;6.780;2022-07-04T13:01:04;27.90;55.70
9984;DHT22;16737;50.932;6.780;2022-07-04T13:03:31;27.90;55.80
9984;DHT22;16737;50.932;6.780;2022-07-04T13:05:59;27.90;55.80
9984;DHT22;16737;50.932;6.780;2022-07-04T13:08:26;27.80;55.50
9984;DHT22;16737;50.932;6.780;2022-07-04T13:10:53;27.80;55.40
9984;DHT22;16737;50.932;6.780;2022-07-04T13:13:34;27.80;55.40
9984;DHT22;16737;50.932;6.780;2022-07-04T13:16:03;27.80;55.50
9984;DHT22;16737;50.932;6.780;2022-07-04T13:18:31;27.80;55.40
9984;DHT22;16737;50.932;6.780;2022-07-04T13:20:58;27.70;55.60
9984;DHT22;16737;50.932;6.780;2022-07-04T13:23:25;27.70;55.80
9984;DHT22;16737;50.932;6.780;2022-07-04T13:25:52;27.70;55.70
9984;DHT22;16737;50.932;6.780;2022-07-04T13:28:19;27.70;55.70
9984;DHT22;16737;50.932;6.780;2022-07-04T13:30:46;27.70;56.20
9984;DHT22;16737;50.932;6.780;2022-07-04T13:33:15;27.80;55.60
9984;DHT22;16737;50.932;6.780;2022-07-04T13:35:42;27.90;55.10
9984;DHT22;16737;50.932;6.780;2022-07-04T13:38:09;27.90;55.70
9984;DHT22;16737;50.932;6.780;2022-07-04T13:40:36;28.00;55.30
9984;DHT22;16737;50.932;6.780;2022-07-04T13:43:03;28.10;55.10
9984;DHT22;16737;50.932;6.780;2022-07-04T13:45:35;28.10;55.20
9984;DHT22;16737;50.932;6.780;2022-07-04T13:48:04;28.20;55.40
9984;DHT22;16737;50.932;6.780;2022-07-04T13:50:33;28.20;54.80
9984;DHT22;16737;50.932;6.780;2022-07-04T13:53:03;28.30;54.40
9984;DHT22;16737;50.932;6.780;2022-07-04T13:55:30;28.30;54.60
9984;DHT22;16737;50.932;6.780;2022-07-04T13:57:57;28.50;54.70
9984;DHT22;16737;50.932;6.780;2022-07-04T14:00:24;28.50;54.40
9984;DHT22;16737;50.932;6.780;2022-07-04T14:02:51;28.60;54.30
9984;DHT22;16737;50.932;6.780;2022-07-04T14:05:18;28.60;54.30
9984;DHT22;16737;50.932;6.780;2022-07-04T14:07:47;28.80;54.20
9984;DHT22;16737;50.932;6.780;2022-07-04T14:10:14;28.80;53.70
9984;DHT22;16737;50.932;6.780;2022-07-04T14:12:41;28.90;53.60
9984;DHT22;16737;50.932;6.780;2022-07-04T14:15:09;28.90;53.40
9984;DHT22;16737;50.932;6.780;2022-07-04T14:17:36;28.90;53.40
9984;DHT22;16737;50.932;6.780;2022-07-04T14:20:05;28.90;53.20
9984;DHT22;16737;50.932;6.780;2022-07-04T14:22:35;28.80;52.90
9984;DHT22;16737;50.932;6.780;2022-07-04T14:25:04;28.80;53.30
9984;DHT22;16737;50.932;6.780;2022-07-04T14:27:32;28.90;52.60
9984;DHT22;16737;50.932;6.780;2022-07-04T14:29:59;28.80;52.90
9984;DHT22;16737;50.932;6.780;2022-07-04T14:32:27;28.90;52.90
9984;DHT22;16737;50.932;6.780;2022-07-04T14:34:54;28.90;52.90
9984;DHT22;16737;50.932;6.780;2022-07-04T14:37:21;29.00;52.80
9984;DHT22;16737;50.932;6.780;2022-07-04T14:39:48;29.00;52.60
9984;DHT22;16737;50.932;6.780;2022-07-04T14:42:16;29.00;52.60
9984;DHT22;16737;50.932;6.780;2022-07-04T14:44:43;29.10;52.70
9984;DHT22;16737;50.932;6.780;2022-07-04T14:47:10;29.10;52.90
9984;DHT22;16737;50.932;6.780;2022-07-04T14:49:38;29.20;52.80
9984;DHT22;16737;50.932;6.780;2022-07-04T14:52:06;29.20;52.50
9984;DHT22;16737;50.932;6.780;2022-07-04T14:54:33;29.30;52.60
9984;DHT22;16737;50.932;6.780;2022-07-04T14:57:00;29.30;51.80
9984;DHT22;16737;50.932;6.780;2022-07-04T14:59:28;29.20;51.60
9984;DHT22;16737;50.932;6.780;2022-07-04T15:01:56;29.10;51.30
9984;DHT22;16737;50.932;6.780;2022-07-04T15:04:23;29.10;51.90
9984;DHT22;16737;50.932;6.780;2022-07-04T15:06:50;29.00;52.20
9984;DHT22;16737;50.932;6.780;2022-07-04T15:09:17;29.00;52.10
9984;DHT22;16737;50.932;6.780;2022-07-04T15:11:44;29.00;52.00
9984;DHT22;16737;50.932;6.780;2022-07-04T15:14:13;29.00;51.60
9984;DHT22;16737;50.932;6.780;2022-07-04T15:16:41;29.00;51.80
9984;DHT22;16737;50.932;6.780;2022-07-04T15:19:09;29.10;51.70
9984;DHT22;16737;50.932;6.780;2022-07-04T15:21:36;29.10;51.60
9984;DHT22;16737;50.932;6.780;2022-07-04T15:24:21;29.10;51.60
9984;DHT22;16737;50.932;6.780;2022-07-04T15:26:49;29.10;51.60
9984;DHT22;16737;50.932;6.780;2022-07-04T15:29:18;29.10;51.60
9984;DHT22;16737;50.932;6.780;2022-07-04T15:31:47;29.10;51.20
